Time;durP1;ratioP1;P1;durP2;ratioP2;P2;SDS_P1;SDS_P2;PMS_P1;PMS_P2;Temp;Humidity;BMP_temperature;BMP_pressure;BME280_temperature;BME280_humidity;BME280_pressure;Samples;Min_cycle;Max_cycle;Signal;HPM_P1;HPM_P2
2021/01/12 00:01:31;;;;;;;28.98;18.38;;;1.40;99.90;;;;;;4974631;28;20745;-74
2021/01/12 00:04:16;;;;;;;27.38;16.58;;;1.40;99.90;;;;;;4987596;28;20282;-74
2021/01/12 00:07:01;;;;;;;28.33;18.55;;;1.40;99.90;;;;;;4981902;28;20253;-74
2021/01/12 00:09:47;;;;;;;28.60;17.40;;;1.40;99.90;;;;;;4978113;28;20586;-74
2021/01/12 00:12:33;;;;;;;33.35;17.38;;;1.50;99.90;;;;;;4979683;28;20214;-74
2021/01/12 00:15:18;;;;;;;25.92;16.92;;;1.40;99.90;;;;;;4991248;28;20269;-74
2021/01/12 00:18:04;;;;;;;29.63;17.98;;;1.40;99.90;;;;;;4991653;28;20319;-75
2021/01/12 00:20:49;;;;;;;25.63;14.93;;;1.40;99.90;;;;;;4982040;28;20725;-74
2021/01/12 00:23:34;;;;;;;28.08;16.13;;;1.50;99.90;;;;;;4984392;28;20273;-74
2021/01/12 00:26:20;;;;;;;31.40;17.45;;;1.50;99.90;;;;;;4981885;28;20664;-75
2021/01/12 00:29:05;;;;;;;29.13;16.55;;;1.50;99.90;;;;;;4985729;28;20206;-74
2021/01/12 00:31:50;;;;;;;24.52;15.25;;;1.60;99.90;;;;;;4986568;28;20214;-74
2021/01/12 00:34:35;;;;;;;26.50;16.58;;;1.60;99.90;;;;;;4988787;28;20330;-74
2021/01/12 00:37:21;;;;;;;23.83;15.65;;;1.60;99.90;;;;;;4983716;28;20254;-74
2021/01/12 00:40:08;;;;;;;26.73;16.88;;;1.60;99.90;;;;;;4987011;28;20288;-74
2021/01/12 00:42:54;;;;;;;27.67;16.55;;;1.60;99.90;;;;;;4990525;28;20257;-74
2021/01/12 00:45:39;;;;;;;33.67;17.30;;;1.70;99.90;;;;;;4982794;28;20647;-74
2021/01/12 00:48:24;;;;;;;25.23;15.35;;;1.70;99.90;;;;;;4987844;28;20227;-74
2021/01/12 00:51:09;;;;;;;24.33;16.00;;;1.70;99.90;;;;;;4992148;28;20210;-74
2021/01/12 00:53:54;;;;;;;26.08;16.50;;;1.60;99.90;;;;;;4987111;28;20277;-74
2021/01/12 00:56:40;;;;;;;26.27;16.15;;;1.70;99.90;;;;;;4988623;28;20250;-74
2021/01/12 00:59:26;;;;;;;25.27;17.13;;;1.70;99.90;;;;;;4984034;28;20214;-74
2021/01/12 01:02:11;;;;;;;30.73;17.15;;;1.80;99.90;;;;;;4985215;28;20754;-74
2021/01/12 01:04:57;;;;;;;27.40;18.35;;;1.70;99.90;;;;;;4983144;28;21466;-74
2021/01/12 01:07:41;;;;;;;27.60;16.90;;;1.60;99.90;;;;;;4982904;28;20238;-74
2021/01/12 01:10:27;;;;;;;26.20;15.20;;;1.60;99.90;;;;;;4981519;28;20210;-74
2021/01/12 01:13:12;;;;;;;25.40;16.95;;;1.60;99.90;;;;;;4988894;28;20678;-74
2021/01/12 01:15:58;;;;;;;22.70;14.35;;;1.60;99.90;;;;;;4987016;28;20219;-74
2021/01/12 01:18:43;;;;;;;27.33;17.35;;;1.60;99.90;;;;;;4984246;28;20206;-74
2021/01/12 01:21:28;;;;;;;20.65;13.57;;;1.60;99.90;;;;;;4985285;28;20931;-74
2021/01/12 01:24:13;;;;;;;25.45;15.98;;;1.60;99.90;;;;;;4987127;28;20243;-75
2021/01/12 01:26:58;;;;;;;28.08;17.73;;;1.60;99.90;;;;;;4989562;28;20254;-74
2021/01/12 01:29:44;;;;;;;27.98;17.85;;;1.60;99.90;;;;;;4981846;28;20598;-74
2021/01/12 01:32:30;;;;;;;28.92;17.58;;;1.60;99.90;;;;;;4985041;28;20282;-74
2021/01/12 01:35:16;;;;;;;29.80;17.67;;;1.60;99.90;;;;;;4983669;28;20613;-74
2021/01/12 01:38:01;;;;;;;32.42;18.58;;;1.60;99.90;;;;;;4986591;28;20247;-74
2021/01/12 01:40:47;;;;;;;28.48;17.27;;;1.60;99.90;;;;;;4988387;28;20214;-74
2021/01/12 01:43:32;;;;;;;26.33;15.90;;;1.60;99.90;;;;;;4987031;28;20227;-74
2021/01/12 01:46:18;;;;;;;28.90;16.88;;;1.60;99.90;;;;;;4985574;28;20215;-74
2021/01/12 01:49:04;;;;;;;28.95;17.15;;;1.60;99.90;;;;;;4983502;28;20246;-74
2021/01/12 01:51:49;;;;;;;27.83;16.98;;;1.60;99.90;;;;;;4984211;28;20214;-74
2021/01/12 01:54:35;;;;;;;22.38;14.90;;;1.70;99.90;;;;;;4990104;28;20629;-74
2021/01/12 01:57:20;;;;;;;29.55;16.42;;;1.70;99.90;;;;;;4985095;28;20218;-74
2021/01/12 02:00:07;;;;;;;24.58;16.33;;;1.70;99.90;;;;;;4986260;28;20291;-74
2021/01/12 02:03:00;;;;;;;25.10;16.58;;;1.70;99.90;;;;;;4987293;28;20270;-74
2021/01/12 02:05:52;;;;;;;28.95;16.50;;;1.80;99.90;;;;;;4980970;28;20733;-74
2021/01/12 02:08:45;;;;;;;26.90;15.38;;;1.80;99.90;;;;;;4985876;28;20625;-74
2021/01/12 02:11:36;;;;;;;23.30;15.18;;;1.80;99.90;;;;;;4983978;28;20227;-74
2021/01/12 02:14:23;;;;;;;28.83;16.20;;;1.90;99.90;;;;;;4983482;28;20330;-74
2021/01/12 02:17:09;;;;;;;27.90;15.65;;;1.90;99.90;;;;;;4985532;28;20226;-74
2021/01/12 02:19:55;;;;;;;25.70;16.15;;;1.90;99.90;;;;;;4979597;28;20238;-74
2021/01/12 02:22:46;;;;;;;25.15;15.90;;;1.90;99.90;;;;;;4987560;28;20207;-74
2021/01/12 02:25:35;;;;;;;24.08;14.82;;;1.90;99.90;;;;;;4980016;28;20710;-74
2021/01/12 02:28:20;;;;;;;25.40;15.23;;;1.90;99.90;;;;;;4984076;28;20231;-74
2021/01/12 02:31:05;;;;;;;25.42;15.95;;;1.90;99.90;;;;;;4986768;28;20211;-74
2021/01/12 02:33:52;;;;;;;23.33;15.95;;;1.80;99.90;;;;;;4979673;28;20311;-74
2021/01/12 02:36:37;;;;;;;23.83;15.88;;;1.90;99.90;;;;;;4980051;28;20207;-74
2021/01/12 02:39:22;;;;;;;27.52;15.55;;;1.90;99.90;;;;;;4984473;28;20206;-74
2021/01/12 02:42:15;;;;;;;25.23;16.48;;;1.90;99.90;;;;;;4987578;28;20219;-74
2021/01/12 02:45:00;;;;;;;25.27;15.95;;;1.90;99.90;;;;;;4986548;28;20254;-74
2021/01/12 02:47:46;;;;;;;28.85;16.73;;;1.90;99.90;;;;;;4984164;28;20282;-74
2021/01/12 02:50:31;;;;;;;32.10;18.30;;;1.80;99.90;;;;;;4984951;28;20207;-74
2021/01/12 02:53:16;;;;;;;29.60;15.77;;;1.80;99.90;;;;;;4989034;28;21025;-74
2021/01/12 02:56:02;;;;;;;24.48;15.85;;;1.80;99.90;;;;;;4982605;28;20270;-73
2021/01/12 02:58:47;;;;;;;24.83;16.17;;;1.90;99.90;;;;;;4987707;28;20201;-74
2021/01/12 03:01:33;;;;;;;27.77;15.60;;;1.90;99.90;;;;;;4984966;28;20199;-74
2021/01/12 03:04:17;;;;;;;26.73;16.30;;;1.90;99.90;;;;;;4983011;28;20226;-74
2021/01/12 03:07:02;;;;;;;36.53;19.02;;;1.80;99.90;;;;;;4985516;28;20678;-74
2021/01/12 03:09:47;;;;;;;28.98;17.15;;;1.80;99.90;;;;;;4984376;28;20211;-74
2021/01/12 03:12:33;;;;;;;25.42;16.40;;;1.70;99.90;;;;;;4988309;28;20233;-74
2021/01/12 03:15:19;;;;;;;26.38;16.77;;;1.70;99.90;;;;;;4991357;28;20820;-74
2021/01/12 03:18:04;;;;;;;31.38;18.42;;;1.80;99.90;;;;;;4978531;28;20215;-74
2021/01/12 03:20:50;;;;;;;29.65;16.55;;;1.80;99.90;;;;;;4986331;28;20250;-74
2021/01/12 03:23:35;;;;;;;27.10;17.17;;;1.80;99.90;;;;;;4981305;28;20242;-74
2021/01/12 03:26:21;;;;;;;25.25;16.73;;;1.80;99.90;;;;;;4986922;28;20203;-74
2021/01/12 03:29:06;;;;;;;27.02;15.10;;;1.80;99.90;;;;;;4983085;28;20633;-74
2021/01/12 03:31:53;;;;;;;26.77;16.58;;;1.80;99.90;;;;;;4984935;28;20306;-74
2021/01/12 03:34:38;;;;;;;32.22;17.73;;;1.80;99.90;;;;;;4985029;28;20318;-74
2021/01/12 03:37:23;;;;;;;26.17;15.93;;;1.80;99.90;;;;;;4985514;28;20246;-74
2021/01/12 03:40:09;;;;;;;25.50;13.90;;;1.80;99.90;;;;;;4986152;28;20276;-74
2021/01/12 03:42:54;;;;;;;32.65;18.58;;;1.80;99.90;;;;;;4990027;28;20211;-74
2021/01/12 03:45:39;;;;;;;24.83;16.98;;;1.80;99.90;;;;;;4982243;28;20269;-74
2021/01/12 03:48:25;;;;;;;29.08;17.15;;;1.80;99.90;;;;;;4983107;28;20246;-74
2021/01/12 03:51:10;;;;;;;26.52;16.45;;;1.80;99.90;;;;;;4985078;28;20250;-74
2021/01/12 03:53:55;;;;;;;27.55;17.08;;;1.80;99.90;;;;;;4981130;28;20283;-74
2021/01/12 03:56:40;;;;;;;26.40;16.27;;;1.70;99.90;;;;;;4985211;28;20203;-74
2021/01/12 03:59:26;;;;;;;28.00;17.48;;;1.80;99.90;;;;;;4980867;28;20206;-74
2021/01/12 04:02:11;;;;;;;25.20;16.65;;;1.70;99.90;;;;;;4980712;28;20206;-74
2021/01/12 04:04:57;;;;;;;30.63;17.65;;;1.70;99.90;;;;;;4983103;28;20584;-74
2021/01/12 04:07:42;;;;;;;32.97;17.25;;;1.60;99.90;;;;;;4984954;28;20246;-75
2021/01/12 04:10:27;;;;;;;27.88;16.77;;;1.60;99.90;;;;;;4984124;28;20233;-74
2021/01/12 04:13:12;;;;;;;24.13;15.10;;;1.60;99.90;;;;;;4985085;28;20350;-74
2021/01/12 04:15:58;;;;;;;27.55;17.40;;;1.60;99.90;;;;;;4982439;28;20781;-74
2021/01/12 04:18:43;;;;;;;26.02;16.45;;;1.60;99.90;;;;;;4983414;28;20279;-74
2021/01/12 04:21:29;;;;;;;24.92;16.38;;;1.60;99.90;;;;;;4987627;28;20675;-75
2021/01/12 04:24:14;;;;;;;31.17;18.90;;;1.60;99.90;;;;;;4984485;28;20246;-74
2021/01/12 04:26:59;;;;;;;23.92;15.20;;;1.60;99.90;;;;;;4983385;28;20241;-74
2021/01/12 04:29:44;;;;;;;28.13;16.63;;;1.60;99.90;;;;;;4983278;28;20203;-74
2021/01/12 04:32:29;;;;;;;30.85;17.48;;;1.60;99.90;;;;;;4981477;28;20206;-74
2021/01/12 04:35:14;;;;;;;28.25;18.15;;;1.60;99.90;;;;;;4989811;28;20234;-74
2021/01/12 04:38:00;;;;;;;29.38;16.20;;;1.60;99.90;;;;;;4983081;28;20718;-74
2021/01/12 04:40:45;;;;;;;31.30;17.38;;;1.60;99.90;;;;;;4981172;28;20207;-74
2021/01/12 04:43:30;;;;;;;27.23;17.73;;;1.60;99.90;;;;;;4984378;28;20210;-74
2021/01/12 04:46:15;;;;;;;29.70;17.25;;;1.60;99.90;;;;;;4980644;28;20236;-74
2021/01/12 04:49:01;;;;;;;35.97;18.40;;;1.60;99.90;;;;;;4986647;28;20202;-74
2021/01/12 04:51:46;;;;;;;27.60;17.40;;;1.60;99.90;;;;;;4985039;28;20730;-75
2021/01/12 04:54:33;;;;;;;25.33;16.27;;;1.70;99.90;;;;;;4976507;28;20230;-74
2021/01/12 04:57:19;;;;;;;26.08;16.38;;;1.70;99.90;;;;;;4983325;28;20206;-74
2021/01/12 05:00:09;;;;;;;25.88;16.40;;;1.60;99.90;;;;;;4984259;28;20234;-74
2021/01/12 05:03:01;;;;;;;31.02;17.73;;;1.60;99.90;;;;;;4983138;28;20690;-74
2021/01/12 05:05:46;;;;;;;28.50;17.35;;;1.70;99.90;;;;;;4988868;28;20299;-74
2021/01/12 05:08:31;;;;;;;26.00;16.40;;;1.70;99.90;;;;;;4982920;28;20230;-74
2021/01/12 05:11:18;;;;;;;27.05;17.55;;;1.70;99.90;;;;;;4986647;28;20258;-74
2021/01/12 05:14:05;;;;;;;31.63;16.73;;;1.70;99.90;;;;;;4987336;28;20302;-74
2021/01/12 05:16:52;;;;;;;25.80;15.60;;;1.70;99.90;;;;;;4986035;28;20346;-74
2021/01/12 05:19:41;;;;;;;28.27;16.33;;;1.70;99.90;;;;;;4986538;28;20779;-74
2021/01/12 05:22:29;;;;;;;28.30;17.00;;;1.60;99.90;;;;;;4982825;28;20342;-74
2021/01/12 05:25:20;;;;;;;31.10;16.92;;;1.60;99.90;;;;;;4986331;28;20259;-74
2021/01/12 05:28:08;;;;;;;26.25;16.20;;;1.60;99.90;;;;;;4992079;28;20588;-74
2021/01/12 05:30:55;;;;;;;23.48;15.75;;;1.60;99.90;;;;;;4984854;28;20203;-73
2021/01/12 05:33:42;;;;;;;26.05;16.90;;;1.60;99.90;;;;;;4986690;28;20199;-74
2021/01/12 05:36:29;;;;;;;28.30;17.58;;;1.60;99.90;;;;;;4989346;28;20243;-73
2021/01/12 05:39:18;;;;;;;26.27;16.10;;;1.60;99.90;;;;;;4986390;28;20207;-74
2021/01/12 05:42:06;;;;;;;28.38;15.45;;;1.60;99.90;;;;;;4987567;28;20567;-74
2021/01/12 05:44:53;;;;;;;26.98;17.90;;;1.60;99.90;;;;;;4993333;28;20231;-74
2021/01/12 05:47:38;;;;;;;41.92;17.83;;;1.60;99.90;;;;;;4987685;28;20690;-74
2021/01/12 05:50:29;;;;;;;28.75;17.13;;;1.60;99.90;;;;;;4987284;28;20210;-74
2021/01/12 05:53:16;;;;;;;26.23;16.40;;;1.60;99.90;;;;;;4986068;28;20250;-74
2021/01/12 05:56:06;;;;;;;26.52;17.70;;;1.70;99.90;;;;;;4985686;28;20278;-74
2021/01/12 05:58:53;;;;;;;24.90;17.17;;;1.60;99.90;;;;;;4987057;28;20230;-74
2021/01/12 06:01:50;;;;;;;25.98;17.27;;;1.60;99.90;;;;;;4981914;28;20203;-74
2021/01/12 06:04:36;;;;;;;28.00;15.70;;;1.60;99.90;;;;;;4980208;28;20231;-74
2021/01/12 06:07:21;;;;;;;24.40;15.95;;;1.60;99.90;;;;;;4983122;28;20674;-75
2021/01/12 06:10:10;;;;;;;28.83;17.77;;;1.60;99.90;;;;;;4985150;28;20254;-74
2021/01/12 06:13:01;;;;;;;26.70;15.82;;;1.60;99.90;;;;;;4991373;28;20207;-73
2021/01/12 06:15:48;;;;;;;32.58;16.90;;;1.60;99.90;;;;;;4981114;28;20312;-74
2021/01/12 06:18:48;;;;;;;29.75;17.50;;;1.60;99.90;;;;;;4986827;28;20226;-74
2021/01/12 06:21:50;;;;;;;26.90;17.25;;;1.60;99.90;;;;;;4982437;28;20626;-74
2021/01/12 06:24:44;;;;;;;23.70;15.15;;;1.60;99.90;;;;;;4985330;28;20294;-74
2021/01/12 06:27:32;;;;;;;29.88;18.10;;;1.70;99.90;;;;;;4985257;28;20198;-75
2021/01/12 06:30:18;;;;;;;28.35;16.20;;;1.70;99.90;;;;;;4986959;28;20301;-74
2021/01/12 06:33:05;;;;;;;24.00;15.40;;;1.70;99.90;;;;;;4986412;28;20198;-74
2021/01/12 06:35:52;;;;;;;21.42;15.23;;;1.70;99.90;;;;;;4991857;28;20294;-75
2021/01/12 06:38:39;;;;;;;21.02;14.38;;;1.70;99.90;;;;;;4982705;28;20622;-76
2021/01/12 06:41:28;;;;;;;25.67;16.25;;;1.70;99.90;;;;;;4983916;28;20291;-74
2021/01/12 06:44:21;;;;;;;24.60;15.63;;;1.70;99.90;;;;;;4979118;28;20727;-74
2021/01/12 06:47:08;;;;;;;25.15;16.83;;;1.70;99.90;;;;;;4992707;28;20249;-74
2021/01/12 06:50:09;;;;;;;26.33;16.17;;;1.70;99.90;;;;;;4987686;28;20261;-74
2021/01/12 06:52:58;;;;;;;24.58;16.00;;;1.70;99.90;;;;;;4980855;28;20246;-74
2021/01/12 06:55:43;;;;;;;25.00;16.20;;;1.70;99.90;;;;;;4982804;28;20718;-74
2021/01/12 06:58:30;;;;;;;23.70;15.30;;;1.70;99.90;;;;;;4984206;28;20691;-74
2021/01/12 07:01:22;;;;;;;25.63;15.35;;;1.70;99.90;;;;;;4979889;28;20338;-74
2021/01/12 07:04:07;;;;;;;28.73;16.77;;;1.70;99.90;;;;;;4985807;28;20227;-74
2021/01/12 07:06:57;;;;;;;27.38;15.65;;;1.70;99.90;;;;;;4980648;28;20291;-74
2021/01/12 07:09:46;;;;;;;24.23;14.65;;;1.60;99.90;;;;;;4978436;28;20310;-74
2021/01/12 07:12:31;;;;;;;26.70;15.10;;;1.60;99.90;;;;;;4983358;28;20231;-74
2021/01/12 07:15:17;;;;;;;28.90;16.08;;;1.60;99.90;;;;;;4987683;28;20230;-76
2021/01/12 07:18:04;;;;;;;24.10;15.32;;;1.60;99.90;;;;;;4986316;28;20211;-74
2021/01/12 07:20:51;;;;;;;20.17;13.80;;;1.60;99.90;;;;;;4981112;28;20226;-74
2021/01/12 07:23:36;;;;;;;21.90;13.55;;;1.60;99.90;;;;;;4981561;28;20305;-74
2021/01/12 07:26:23;;;;;;;23.95;14.15;;;1.60;99.90;;;;;;4978042;28;20234;-75
2021/01/12 07:29:10;;;;;;;21.45;13.82;;;1.70;99.90;;;;;;4986295;28;20214;-74
2021/01/12 07:32:03;;;;;;;21.58;13.75;;;1.80;99.90;;;;;;4988099;28;20629;-74
2021/01/12 07:34:49;;;;;;;18.48;12.63;;;1.80;99.90;;;;;;4987206;28;20254;-74
2021/01/12 07:37:40;;;;;;;19.63;12.57;;;1.80;99.90;;;;;;4980260;28;20222;-75
2021/01/12 07:40:25;;;;;;;17.02;11.85;;;1.80;99.90;;;;;;4979141;28;20764;-74
2021/01/12 07:43:16;;;;;;;18.15;12.73;;;1.80;99.90;;;;;;4983562;28;20238;-74
2021/01/12 07:46:01;;;;;;;20.30;12.02;;;1.90;99.90;;;;;;4983153;28;20232;-74
2021/01/12 07:48:47;;;;;;;19.38;12.30;;;1.90;99.90;;;;;;4980405;28;20207;-73
2021/01/12 07:51:32;;;;;;;15.70;10.48;;;1.90;99.90;;;;;;4991894;28;20274;-75
2021/01/12 07:54:25;;;;;;;18.45;12.05;;;1.90;99.90;;;;;;4983968;28;20230;-74
2021/01/12 07:57:11;;;;;;;14.95;10.52;;;1.90;99.90;;;;;;4988549;28;20203;-74
2021/01/12 07:59:58;;;;;;;15.13;10.25;;;1.90;99.90;;;;;;4984743;28;20541;-74
2021/01/12 08:02:44;;;;;;;15.77;10.50;;;1.90;99.90;;;;;;4979982;28;20419;-74
2021/01/12 08:05:30;;;;;;;16.85;10.52;;;1.90;99.90;;;;;;4983769;28;20330;-73
2021/01/12 08:08:16;;;;;;;14.90;10.07;;;1.90;99.90;;;;;;4983633;28;20213;-74
2021/01/12 08:11:01;;;;;;;17.30;10.13;;;1.90;99.90;;;;;;4984014;28;20210;-74
2021/01/12 08:13:46;;;;;;;16.50;11.30;;;1.90;99.90;;;;;;4981491;28;20238;-74
2021/01/12 08:16:33;;;;;;;13.88;9.63;;;1.90;99.90;;;;;;4981951;28;20206;-74
2021/01/12 08:19:21;;;;;;;16.70;10.50;;;1.90;99.90;;;;;;4978946;28;20234;-73
2021/01/12 08:22:09;;;;;;;13.10;8.63;;;1.90;99.90;;;;;;4979150;28;20581;-74
2021/01/12 08:25:04;;;;;;;13.95;8.55;;;1.90;99.90;;;;;;4982105;28;20611;-73
2021/01/12 08:27:50;;;;;;;14.02;9.65;;;1.90;99.90;;;;;;4987523;28;20210;-73
2021/01/12 08:30:36;;;;;;;15.30;9.40;;;1.90;99.90;;;;;;4977636;28;20206;-75
2021/01/12 08:33:27;;;;;;;14.00;9.13;;;2.00;99.90;;;;;;4980244;28;20218;-76
2021/01/12 08:36:15;;;;;;;11.98;9.13;;;2.10;99.90;;;;;;4985150;28;20234;-74
2021/01/12 08:39:02;;;;;;;11.45;8.18;;;2.20;99.90;;;;;;4988821;28;20245;-73
2021/01/12 08:41:48;;;;;;;15.38;9.75;;;2.30;99.90;;;;;;4985796;28;20587;-74
2021/01/12 08:44:41;;;;;;;16.35;9.55;;;2.40;99.90;;;;;;4989516;28;20265;-74
2021/01/12 08:47:27;;;;;;;12.55;7.90;;;2.30;99.90;;;;;;4988678;28;20210;-74
2021/01/12 08:50:14;;;;;;;12.00;8.30;;;2.20;99.90;;;;;;4985289;28;20613;-74
2021/01/12 08:52:59;;;;;;;12.80;8.23;;;2.20;99.90;;;;;;4987099;28;20574;-74
2021/01/12 08:55:45;;;;;;;11.18;7.70;;;2.10;99.90;;;;;;4986006;28;20772;-74
2021/01/12 08:58:29;;;;;;;10.35;7.43;;;2.20;99.90;;;;;;4994189;28;20231;-75
2021/01/12 09:01:15;;;;;;;11.07;8.27;;;2.10;99.90;;;;;;4983133;28;20269;-75
2021/01/12 09:04:05;;;;;;;11.48;8.05;;;2.10;99.90;;;;;;4984395;28;20287;-74
2021/01/12 09:07:04;;;;;;;11.40;7.00;;;2.10;99.90;;;;;;4983519;28;20230;-75
2021/01/12 09:09:53;;;;;;;10.23;7.28;;;2.20;99.90;;;;;;4988188;28;20234;-74
2021/01/12 09:12:39;;;;;;;10.38;6.70;;;2.20;99.90;;;;;;4979399;28;20257;-74
2021/01/12 09:15:29;;;;;;;8.05;6.50;;;2.20;99.90;;;;;;4992061;28;20219;-74
2021/01/12 09:18:19;;;;;;;8.90;6.82;;;2.10;99.90;;;;;;4988769;28;20258;-74
2021/01/12 09:21:06;;;;;;;6.28;5.60;;;2.10;99.90;;;;;;4987334;28;20682;-74
2021/01/12 09:23:52;;;;;;;8.48;5.90;;;2.10;99.90;;;;;;4983634;28;20219;-74
2021/01/12 09:26:38;;;;;;;12.82;7.00;;;2.10;99.90;;;;;;4989867;28;20226;-75
2021/01/12 09:29:23;;;;;;;9.55;6.53;;;2.20;99.90;;;;;;4988564;28;20206;-72
2021/01/12 09:32:11;;;;;;;17.40;11.35;;;2.10;99.90;;;;;;4988572;28;20210;-74
2021/01/12 09:34:57;;;;;;;11.30;7.68;;;2.00;99.90;;;;;;4984506;28;20298;-73
2021/01/12 09:37:42;;;;;;;11.20;7.88;;;2.00;99.90;;;;;;4984046;28;20684;-73
2021/01/12 09:40:29;;;;;;;16.25;9.80;;;2.00;99.90;;;;;;4981213;28;20348;-74
2021/01/12 09:43:23;;;;;;;9.30;6.55;;;2.10;99.90;;;;;;4983186;28;20577;-74
2021/01/12 09:46:10;;;;;;;11.80;7.05;;;2.10;99.90;;;;;;4990621;28;20273;-74
2021/01/12 09:48:56;;;;;;;9.30;7.38;;;2.10;99.90;;;;;;4989253;28;20293;-74
2021/01/12 09:51:42;;;;;;;9.65;7.00;;;2.10;99.90;;;;;;4981913;28;20747;-74
2021/01/12 09:54:28;;;;;;;8.45;5.90;;;2.10;99.90;;;;;;4984711;28;20223;-75
2021/01/12 09:57:14;;;;;;;7.80;6.10;;;2.20;99.90;;;;;;4990434;28;20202;-73
2021/01/12 09:59:59;;;;;;;15.13;11.18;;;2.30;99.90;;;;;;4985189;28;20223;-73
2021/01/12 10:02:44;;;;;;;9.52;7.00;;;2.40;99.90;;;;;;4983654;28;20269;-74
2021/01/12 10:05:29;;;;;;;7.18;5.10;;;2.40;99.90;;;;;;4983495;28;20718;-73
2021/01/12 10:08:15;;;;;;;6.30;4.95;;;2.40;99.90;;;;;;4976071;28;20283;-73
2021/01/12 10:11:02;;;;;;;5.60;4.40;;;2.40;99.90;;;;;;4983119;28;20285;-74
2021/01/12 10:13:49;;;;;;;8.13;6.05;;;2.40;99.90;;;;;;4987111;28;20199;-73
2021/01/12 10:16:34;;;;;;;7.75;4.97;;;2.40;99.90;;;;;;4982535;28;20246;-73
2021/01/12 10:19:19;;;;;;;9.65;7.07;;;2.40;99.90;;;;;;4983381;28;20246;-73
2021/01/12 10:22:04;;;;;;;7.43;5.05;;;2.30;99.90;;;;;;4984927;28;20210;-74
2021/01/12 10:24:50;;;;;;;6.88;5.03;;;2.30;99.90;;;;;;4985196;28;20734;-73
2021/01/12 10:27:38;;;;;;;8.50;5.40;;;2.30;99.90;;;;;;4985728;28;20219;-73
2021/01/12 10:30:24;;;;;;;6.82;4.90;;;2.40;99.90;;;;;;4984156;28;20202;-73
2021/01/12 10:33:09;;;;;;;8.32;5.35;;;2.40;99.90;;;;;;4982035;28;20253;-74
2021/01/12 10:35:55;;;;;;;7.10;5.57;;;2.40;99.90;;;;;;4987746;28;20282;-73
2021/01/12 10:38:39;;;;;;;7.10;5.30;;;2.50;99.90;;;;;;4989096;28;20202;-73
2021/01/12 10:41:25;;;;;;;5.63;5.05;;;2.50;99.90;;;;;;4987745;28;20231;-73
2021/01/12 10:44:10;;;;;;;6.05;4.75;;;2.60;99.90;;;;;;4985399;28;20231;-73
2021/01/12 10:46:56;;;;;;;7.78;4.70;;;2.60;99.90;;;;;;4983952;28;20227;-73
2021/01/12 10:49:42;;;;;;;5.47;4.00;;;2.60;99.90;;;;;;4985092;28;20211;-73
2021/01/12 10:52:27;;;;;;;4.80;4.28;;;2.60;99.90;;;;;;4989481;28;20213;-73
2021/01/12 10:55:13;;;;;;;6.65;4.15;;;2.50;99.90;;;;;;4994774;28;20281;-73
2021/01/12 10:57:58;;;;;;;5.85;4.00;;;2.50;99.90;;;;;;4981525;28;20238;-73
2021/01/12 11:00:46;;;;;;;3.67;3.25;;;2.50;99.90;;;;;;4982961;28;20354;-73
2021/01/12 11:03:34;;;;;;;5.40;3.53;;;2.60;99.90;;;;;;4984322;28;20203;-73
2021/01/12 11:06:21;;;;;;;8.38;4.13;;;2.60;99.90;;;;;;4991603;28;20311;-73
2021/01/12 11:09:07;;;;;;;4.93;3.00;;;2.60;99.90;;;;;;4984999;28;20624;-73
2021/01/12 11:11:58;;;;;;;4.70;3.53;;;2.60;99.90;;;;;;4983652;28;20810;-73
2021/01/12 11:14:44;;;;;;;4.40;3.45;;;2.60;99.90;;;;;;4984317;28;20226;-73
2021/01/12 11:17:31;;;;;;;6.63;3.08;;;2.50;99.90;;;;;;4985646;28;20211;-73
2021/01/12 11:20:18;;;;;;;3.83;3.42;;;2.50;99.90;;;;;;4991847;28;20206;-73
2021/01/12 11:23:03;;;;;;;5.60;2.75;;;2.50;99.90;;;;;;4987162;28;20722;-74
2021/01/12 11:25:49;;;;;;;4.55;2.70;;;2.60;99.90;;;;;;4985538;28;20721;-74
2021/01/12 11:28:34;;;;;;;3.88;3.00;;;2.60;99.90;;;;;;4984488;28;20329;-73
2021/01/12 11:31:20;;;;;;;5.40;3.22;;;2.70;99.90;;;;;;4982537;28;20754;-73
2021/01/12 11:34:06;;;;;;;4.75;2.60;;;2.60;99.90;;;;;;4992154;28;20222;-73
2021/01/12 11:36:54;;;;;;;4.43;2.80;;;2.60;99.90;;;;;;4984767;28;20987;-72
2021/01/12 11:39:39;;;;;;;4.13;3.25;;;2.60;99.90;;;;;;4983595;28;20234;-72
2021/01/12 11:42:24;;;;;;;3.20;2.67;;;2.60;99.90;;;;;;4985374;28;20847;-71
2021/01/12 11:45:10;;;;;;;4.47;2.65;;;2.60;99.90;;;;;;4987891;28;20329;-72
2021/01/12 11:47:56;;;;;;;4.22;3.60;;;2.70;99.90;;;;;;4989630;28;20211;-73
2021/01/12 11:50:41;;;;;;;4.53;3.53;;;2.60;99.90;;;;;;4976133;28;20214;-73
2021/01/12 11:53:27;;;;;;;6.25;4.18;;;2.50;99.90;;;;;;4983830;28;22090;-72
2021/01/12 11:56:12;;;;;;;4.30;2.88;;;2.60;99.90;;;;;;4985994;28;20686;-74
2021/01/12 11:58:58;;;;;;;4.95;3.38;;;2.60;99.90;;;;;;4983530;28;20246;-72
2021/01/12 12:01:43;;;;;;;5.20;3.15;;;2.60;99.90;;;;;;4978165;28;20484;-75
2021/01/12 12:04:28;;;;;;;2.55;2.28;;;2.60;99.90;;;;;;4984259;28;20733;-73
2021/01/12 12:07:14;;;;;;;3.15;2.60;;;2.70;99.90;;;;;;4981376;28;20206;-74
2021/01/12 12:10:01;;;;;;;3.13;2.72;;;2.70;99.90;;;;;;4979521;28;20214;-73
2021/01/12 12:12:46;;;;;;;2.92;2.40;;;2.60;99.90;;;;;;4988607;28;20206;-74
2021/01/12 12:15:33;;;;;;;2.60;2.40;;;2.60;99.90;;;;;;4979743;28;20226;-74
2021/01/12 12:18:19;;;;;;;3.28;2.72;;;2.60;99.90;;;;;;4977619;28;20203;-74
2021/01/12 12:21:05;;;;;;;3.50;2.90;;;2.60;99.90;;;;;;4983388;28;20289;-74
2021/01/12 12:23:50;;;;;;;2.50;2.20;;;2.50;99.90;;;;;;4980368;28;20203;-74
2021/01/12 12:26:36;;;;;;;3.45;2.75;;;2.50;99.90;;;;;;4984171;28;20221;-74
2021/01/12 12:29:21;;;;;;;3.40;2.58;;;2.60;99.90;;;;;;4979380;28;20274;-74
2021/01/12 12:32:07;;;;;;;3.55;2.80;;;2.60;99.90;;;;;;4983274;28;20600;-74
2021/01/12 12:34:52;;;;;;;2.90;2.13;;;2.70;99.90;;;;;;4979634;28;20624;-73
2021/01/12 12:37:37;;;;;;;4.05;2.45;;;2.70;99.90;;;;;;4981749;28;20233;-73
2021/01/12 12:40:22;;;;;;;2.85;2.13;;;2.60;99.90;;;;;;4985747;28;20211;-74
2021/01/12 12:43:08;;;;;;;2.67;2.20;;;2.70;99.90;;;;;;4987302;28;20908;-73
2021/01/12 12:45:54;;;;;;;3.00;2.30;;;2.60;99.90;;;;;;4986494;28;20269;-74
2021/01/12 12:48:40;;;;;;;3.55;2.67;;;2.60;99.90;;;;;;4977777;28;20195;-74
2021/01/12 12:51:26;;;;;;;3.10;2.53;;;2.60;99.90;;;;;;4977418;28;20781;-73
2021/01/12 12:54:12;;;;;;;5.35;3.38;;;2.60;99.90;;;;;;4984084;28;20292;-73
2021/01/12 12:56:59;;;;;;;5.07;3.85;;;2.70;99.90;;;;;;4980044;28;20615;-74
2021/01/12 12:59:46;;;;;;;2.85;2.35;;;2.70;99.90;;;;;;4976051;28;20215;-73
2021/01/12 13:02:32;;;;;;;2.83;2.17;;;2.70;99.90;;;;;;4976246;28;20659;-73
2021/01/12 13:05:18;;;;;;;3.38;2.80;;;2.60;99.90;;;;;;4985708;28;20266;-73
2021/01/12 13:08:05;;;;;;;3.03;2.38;;;2.70;99.90;;;;;;4982548;28;20278;-73
2021/01/12 13:10:50;;;;;;;2.85;2.15;;;2.70;99.90;;;;;;4984385;28;20729;-72
2021/01/12 13:13:36;;;;;;;3.50;2.38;;;2.70;99.90;;;;;;4978576;28;20207;-73
2021/01/12 13:16:26;;;;;;;4.68;2.45;;;2.70;99.90;;;;;;4981595;28;20689;-73
2021/01/12 13:19:14;;;;;;;3.85;2.75;;;2.60;99.90;;;;;;4988713;28;20258;-74
2021/01/12 13:21:59;;;;;;;3.40;2.78;;;2.70;99.90;;;;;;4983976;28;20210;-73
2021/01/12 13:24:45;;;;;;;3.00;2.33;;;2.70;99.90;;;;;;4986336;28;20222;-73
2021/01/12 13:27:32;;;;;;;2.78;1.95;;;2.80;99.90;;;;;;4984433;28;20258;-73
2021/01/12 13:30:18;;;;;;;3.28;2.33;;;2.80;99.90;;;;;;4986532;28;20698;-74
2021/01/12 13:33:05;;;;;;;3.38;2.40;;;2.90;99.90;;;;;;4988422;28;20215;-74
2021/01/12 13:35:50;;;;;;;2.70;2.03;;;2.90;99.90;;;;;;4981641;28;20227;-73
2021/01/12 13:38:35;;;;;;;3.65;2.60;;;2.90;99.90;;;;;;4983959;28;20270;-73
2021/01/12 13:41:21;;;;;;;38.47;3.35;;;2.90;99.90;;;;;;4983043;28;20258;-73
2021/01/12 13:44:06;;;;;;;5.15;2.92;;;2.90;99.90;;;;;;4983324;28;20259;-73
2021/01/12 13:46:52;;;;;;;5.50;2.65;;;3.00;99.90;;;;;;4984019;28;20227;-73
2021/01/12 13:49:39;;;;;;;3.53;2.53;;;3.00;99.90;;;;;;4979903;28;20307;-73
2021/01/12 13:52:25;;;;;;;2.95;2.30;;;3.00;99.90;;;;;;4983079;28;20299;-73
2021/01/12 13:55:11;;;;;;;2.55;2.30;;;3.00;99.90;;;;;;4982436;28;20235;-73
2021/01/12 13:58:04;;;;;;;3.15;2.72;;;3.10;99.90;;;;;;4986724;28;20266;-73
2021/01/12 14:00:50;;;;;;;3.75;2.35;;;3.00;99.90;;;;;;4980045;28;20293;-73
2021/01/12 14:03:35;;;;;;;3.88;2.67;;;3.10;99.90;;;;;;4986793;28;20238;-72
2021/01/12 14:06:25;;;;;;;3.92;2.80;;;3.20;99.90;;;;;;4981700;28;20847;-73
2021/01/12 14:09:11;;;;;;;2.97;2.10;;;3.10;99.90;;;;;;4985730;28;20214;-72
2021/01/12 14:11:57;;;;;;;4.95;3.50;;;3.20;99.90;;;;;;4982698;28;20710;-73
2021/01/12 14:14:43;;;;;;;4.35;2.60;;;3.30;99.90;;;;;;4982097;28;20231;-73
2021/01/12 14:17:32;;;;;;;4.10;2.55;;;3.20;99.90;;;;;;4984046;28;20222;-73
2021/01/12 14:20:19;;;;;;;3.25;2.65;;;3.20;99.90;;;;;;4980013;28;20565;-73
2021/01/12 14:23:05;;;;;;;3.17;2.20;;;3.30;99.90;;;;;;4980819;28;20697;-73
2021/01/12 14:25:50;;;;;;;4.25;2.50;;;3.30;99.90;;;;;;4982718;28;20315;-73